sensor_id;sensor_type;location;lat;lon;timestamp;temperature;humidity
26990;DHT22;14537;47.788;11.858;2022-11-20T00:01:23;4.70;99.90
26990;DHT22;14537;47.788;11.858;2022-11-20T00:03:50;4.70;99.90
26990;DHT22;14537;47.788;11.858;2022-11-20T00:06:17;4.70;99.90
26990;DHT22;14537;47.788;11.858;2022-11-20T00:08:44;4.80;99.90
26990;DHT22;14537;47.788;11.858;2022-11-20T00:11:12;4.70;99.90
26990;DHT22;14537;47.788;11.858;2022-11-20T00:13:38;4.80;99.90
26990;DHT22;14537;47.788;11.858;2022-11-20T00:16:06;4.80;99.90
26990;DHT22;14537;47.788;11.858;2022-11-20T00:18:33;4.80;99.90
26990;DHT22;14537;47.788;11.858;2022-11-20T00:21:09;4.70;99.90
26990;DHT22;14537;47.788;11.858;2022-11-20T00:23:35;4.70;99.90
26990;DHT22;14537;47.788;11.858;2022-11-20T00:26:06;4.60;99.90
26990;DHT22;14537;47.788;11.858;2022-11-20T00:28:32;4.60;99.90
26990;DHT22;14537;47.788;11.858;2022-11-20T00:31:05;4.50;99.90
26990;DHT22;14537;47.788;11.858;2022-11-20T00:33:31;4.50;99.90
26990;DHT22;14537;47.788;11.858;2022-11-20T00:36:01;4.50;99.90
26990;DHT22;14537;47.788;11.858;2022-11-20T00:38:27;4.40;99.90
26990;DHT22;14537;47.788;11.858;2022-11-20T00:40:57;4.50;99.90
26990;DHT22;14537;47.788;11.858;2022-11-20T00:43:22;4.40;99.90
26990;DHT22;14537;47.788;11.858;2022-11-20T00:45:48;4.50;99.90
26990;DHT22;14537;47.788;11.858;2022-11-20T00:48:14;4.50;99.90
26990;DHT22;14537;47.788;11.858;2022-11-20T00:50:41;4.50;99.90
26990;DHT22;14537;47.788;11.858;2022-11-20T00:53:07;4.50;99.90
26990;DHT22;14537;47.788;11.858;2022-11-20T00:55:32;4.50;99.90
26990;DHT22;14537;47.788;11.858;2022-11-20T00:57:58;4.50;99.90
26990;DHT22;14537;47.788;11.858;2022-11-20T01:00:24;4.40;99.90
26990;DHT22;14537;47.788;11.858;2022-11-20T01:02:49;4.50;99.90
26990;DHT22;14537;47.788;11.858;2022-11-20T01:05:15;4.50;99.90
26990;DHT22;14537;47.788;11.858;2022-11-20T01:07:41;4.50;99.90
26990;DHT22;14537;47.788;11.858;2022-11-20T01:10:07;4.50;99.90
26990;DHT22;14537;47.788;11.858;2022-11-20T01:12:32;4.50;99.90
26990;DHT22;14537;47.788;11.858;2022-11-20T01:14:58;4.50;99.90
26990;DHT22;14537;47.788;11.858;2022-11-20T01:17:24;4.40;99.90
26990;DHT22;14537;47.788;11.858;2022-11-20T01:19:50;4.50;99.90
26990;DHT22;14537;47.788;11.858;2022-11-20T01:22:16;4.50;99.90
26990;DHT22;14537;47.788;11.858;2022-11-20T01:24:41;4.50;99.90
26990;DHT22;14537;47.788;11.858;2022-11-20T01:27:07;4.50;99.90
26990;DHT22;14537;47.788;11.858;2022-11-20T01:29:33;4.50;99.90
26990;DHT22;14537;47.788;11.858;2022-11-20T01:31:58;4.60;99.90
26990;DHT22;14537;47.788;11.858;2022-11-20T01:34:24;4.60;99.90
26990;DHT22;14537;47.788;11.858;2022-11-20T01:36:51;4.60;99.90
26990;DHT22;14537;47.788;11.858;2022-11-20T01:39:22;4.60;99.90
26990;DHT22;14537;47.788;11.858;2022-11-20T01:41:49;4.60;99.90
26990;DHT22;14537;47.788;11.858;2022-11-20T01:47:16;4.60;99.90
26990;DHT22;14537;47.788;11.858;2022-11-20T01:49:44;4.60;99.90
26990;DHT22;14537;47.788;11.858;2022-11-20T01:52:17;4.60;99.90
26990;DHT22;14537;47.788;11.858;2022-11-20T01:55:06;4.60;99.90
26990;DHT22;14537;47.788;11.858;2022-11-20T01:57:33;4.60;99.90
26990;DHT22;14537;47.788;11.858;2022-11-20T02:00:10;4.60;99.90
26990;DHT22;14537;47.788;11.858;2022-11-20T02:02:37;4.60;99.90
26990;DHT22;14537;47.788;11.858;2022-11-20T02:07:59;4.60;99.90
26990;DHT22;14537;47.788;11.858;2022-11-20T02:10:27;4.60;99.90
26990;DHT22;14537;47.788;11.858;2022-11-20T02:12:53;4.70;99.90
26990;DHT22;14537;47.788;11.858;2022-11-20T02:15:38;4.70;99.90
26990;DHT22;14537;47.788;11.858;2022-11-20T02:18:04;4.70;99.90
26990;DHT22;14537;47.788;11.858;2022-11-20T02:20:31;4.70;99.90
26990;DHT22;14537;47.788;11.858;2022-11-20T02:23:02;4.80;99.90
26990;DHT22;14537;47.788;11.858;2022-11-20T02:25:30;4.70;99.90
26990;DHT22;14537;47.788;11.858;2022-11-20T02:27:57;4.70;99.90
26990;DHT22;14537;47.788;11.858;2022-11-20T02:30:23;4.70;99.90
26990;DHT22;14537;47.788;11.858;2022-11-20T02:32:49;4.70;99.90
26990;DHT22;14537;47.788;11.858;2022-11-20T02:37:43;4.80;99.90
26990;DHT22;14537;47.788;11.858;2022-11-20T02:40:10;4.70;99.90
26990;DHT22;14537;47.788;11.858;2022-11-20T02:42:37;4.70;99.90
26990;DHT22;14537;47.788;11.858;2022-11-20T02:45:04;4.70;99.90
26990;DHT22;14537;47.788;11.858;2022-11-20T02:47:30;4.70;99.90
26990;DHT22;14537;47.788;11.858;2022-11-20T02:49:56;4.70;99.90
26990;DHT22;14537;47.788;11.858;2022-11-20T02:52:21;4.80;99.90
26990;DHT22;14537;47.788;11.858;2022-11-20T02:54:47;4.70;99.90
26990;DHT22;14537;47.788;11.858;2022-11-20T02:57:13;4.70;99.90
26990;DHT22;14537;47.788;11.858;2022-11-20T02:59:38;4.80;99.90
26990;DHT22;14537;47.788;11.858;2022-11-20T03:02:04;4.70;99.90
26990;DHT22;14537;47.788;11.858;2022-11-20T03:04:30;4.70;99.90
26990;DHT22;14537;47.788;11.858;2022-11-20T03:06:56;4.70;99.90
26990;DHT22;14537;47.788;11.858;2022-11-20T03:09:22;4.60;99.90
26990;DHT22;14537;47.788;11.858;2022-11-20T03:11:47;4.60;99.90
26990;DHT22;14537;47.788;11.858;2022-11-20T03:14:13;4.60;99.90
26990;DHT22;14537;47.788;11.858;2022-11-20T03:16:39;4.60;99.90
26990;DHT22;14537;47.788;11.858;2022-11-20T03:19:05;4.60;99.90
26990;DHT22;14537;47.788;11.858;2022-11-20T03:21:33;4.60;99.90
26990;DHT22;14537;47.788;11.858;2022-11-20T03:23:59;4.60;99.90
26990;DHT22;14537;47.788;11.858;2022-11-20T03:26:26;4.60;99.90
26990;DHT22;14537;47.788;11.858;2022-11-20T03:29:02;4.60;99.90
26990;DHT22;14537;47.788;11.858;2022-11-20T03:31:33;4.60;99.90
26990;DHT22;14537;47.788;11.858;2022-11-20T03:34:00;4.50;99.90
26990;DHT22;14537;47.788;11.858;2022-11-20T03:36:27;4.50;99.90
26990;DHT22;14537;47.788;11.858;2022-11-20T03:38:54;4.50;99.90
26990;DHT22;14537;47.788;11.858;2022-11-20T03:41:28;4.40;99.90
26990;DHT22;14537;47.788;11.858;2022-11-20T03:44:00;4.40;99.90
26990;DHT22;14537;47.788;11.858;2022-11-20T03:46:28;4.50;99.90
26990;DHT22;14537;47.788;11.858;2022-11-20T03:48:54;4.40;99.90
26990;DHT22;14537;47.788;11.858;2022-11-20T03:51:21;4.40;99.90
26990;DHT22;14537;47.788;11.858;2022-11-20T03:53:49;4.40;99.90
26990;DHT22;14537;47.788;11.858;2022-11-20T03:56:16;4.40;99.90
26990;DHT22;14537;47.788;11.858;2022-11-20T03:58:42;4.40;99.90
26990;DHT22;14537;47.788;11.858;2022-11-20T04:01:31;4.40;99.90
26990;DHT22;14537;47.788;11.858;2022-11-20T04:03:57;4.40;99.90
26990;DHT22;14537;47.788;11.858;2022-11-20T04:06:28;4.40;99.90
26990;DHT22;14537;47.788;11.858;2022-11-20T04:08:58;4.40;99.90
26990;DHT22;14537;47.788;11.858;2022-11-20T04:11:26;4.40;99.90
26990;DHT22;14537;47.788;11.858;2022-11-20T04:13:57;4.40;99.90
26990;DHT22;14537;47.788;11.858;2022-11-20T04:16:24;4.40;99.90
26990;DHT22;14537;47.788;11.858;2022-11-20T04:18:54;4.40;99.90
26990;DHT22;14537;47.788;11.858;2022-11-20T04:21:20;4.30;99.90
26990;DHT22;14537;47.788;11.858;2022-11-20T04:23:46;4.30;99.90
26990;DHT22;14537;47.788;11.858;2022-11-20T04:26:12;4.30;99.90
26990;DHT22;14537;47.788;11.858;2022-11-20T04:28:38;4.30;99.90
26990;DHT22;14537;47.788;11.858;2022-11-20T04:31:09;4.30;99.90
26990;DHT22;14537;47.788;11.858;2022-11-20T04:33:36;4.30;99.90
26990;DHT22;14537;47.788;11.858;2022-11-20T04:36:10;4.30;99.90
26990;DHT22;14537;47.788;11.858;2022-11-20T04:38:36;4.30;99.90
26990;DHT22;14537;47.788;11.858;2022-11-20T04:41:04;4.30;99.90
26990;DHT22;14537;47.788;11.858;2022-11-20T04:43:31;4.30;99.90
26990;DHT22;14537;47.788;11.858;2022-11-20T04:45:57;4.30;99.90
26990;DHT22;14537;47.788;11.858;2022-11-20T04:48:24;4.30;99.90
26990;DHT22;14537;47.788;11.858;2022-11-20T04:50:51;4.30;99.90
26990;DHT22;14537;47.788;11.858;2022-11-20T04:53:17;4.30;99.90
26990;DHT22;14537;47.788;11.858;2022-11-20T04:55:43;4.20;99.90
26990;DHT22;14537;47.788;11.858;2022-11-20T04:58:08;4.20;99.90
26990;DHT22;14537;47.788;11.858;2022-11-20T05:00:34;4.30;99.90
26990;DHT22;14537;47.788;11.858;2022-11-20T05:03:00;4.20;99.90
26990;DHT22;14537;47.788;11.858;2022-11-20T05:05:26;4.30;99.90
26990;DHT22;14537;47.788;11.858;2022-11-20T05:07:51;4.30;99.90
26990;DHT22;14537;47.788;11.858;2022-11-20T05:10:17;4.30;99.90
26990;DHT22;14537;47.788;11.858;2022-11-20T05:12:42;4.30;99.90
26990;DHT22;14537;47.788;11.858;2022-11-20T05:15:08;4.30;99.90
26990;DHT22;14537;47.788;11.858;2022-11-20T05:17:34;4.30;99.90
26990;DHT22;14537;47.788;11.858;2022-11-20T05:20:00;4.30;99.90
26990;DHT22;14537;47.788;11.858;2022-11-20T05:22:25;4.30;99.90
26990;DHT22;14537;47.788;11.858;2022-11-20T05:24:51;4.30;99.90
26990;DHT22;14537;47.788;11.858;2022-11-20T05:27:17;4.30;99.90
26990;DHT22;14537;47.788;11.858;2022-11-20T05:29:42;4.30;99.90
26990;DHT22;14537;47.788;11.858;2022-11-20T05:32:08;4.40;99.90
26990;DHT22;14537;47.788;11.858;2022-11-20T05:34:35;4.40;99.90
26990;DHT22;14537;47.788;11.858;2022-11-20T05:37:02;4.40;99.90
26990;DHT22;14537;47.788;11.858;2022-11-20T05:39:28;4.30;99.90
26990;DHT22;14537;47.788;11.858;2022-11-20T05:41:53;4.30;99.90
26990;DHT22;14537;47.788;11.858;2022-11-20T05:44:38;4.30;99.90
26990;DHT22;14537;47.788;11.858;2022-11-20T05:47:04;4.30;99.90
26990;DHT22;14537;47.788;11.858;2022-11-20T05:49:30;4.30;99.90
26990;DHT22;14537;47.788;11.858;2022-11-20T05:51:55;4.30;99.90
26990;DHT22;14537;47.788;11.858;2022-11-20T05:54:21;4.30;99.90
26990;DHT22;14537;47.788;11.858;2022-11-20T05:56:47;4.30;99.90
26990;DHT22;14537;47.788;11.858;2022-11-20T05:59:12;4.40;99.90
26990;DHT22;14537;47.788;11.858;2022-11-20T06:01:38;4.40;99.90
26990;DHT22;14537;47.788;11.858;2022-11-20T06:04:04;4.30;99.90
26990;DHT22;14537;47.788;11.858;2022-11-20T06:06:29;4.30;99.90
26990;DHT22;14537;47.788;11.858;2022-11-20T06:08:55;4.40;99.90
26990;DHT22;14537;47.788;11.858;2022-11-20T06:11:21;4.40;99.90
26990;DHT22;14537;47.788;11.858;2022-11-20T06:13:47;4.40;99.90
26990;DHT22;14537;47.788;11.858;2022-11-20T06:16:15;4.40;99.90
26990;DHT22;14537;47.788;11.858;2022-11-20T06:18:41;4.30;99.90
26990;DHT22;14537;47.788;11.858;2022-11-20T06:21:11;4.30;99.90
26990;DHT22;14537;47.788;11.858;2022-11-20T06:23:38;4.40;99.90
26990;DHT22;14537;47.788;11.858;2022-11-20T06:26:06;4.40;99.90
26990;DHT22;14537;47.788;11.858;2022-11-20T06:28:32;4.40;99.90
26990;DHT22;14537;47.788;11.858;2022-11-20T06:30:58;4.30;99.90
26990;DHT22;14537;47.788;11.858;2022-11-20T06:33:24;4.30;99.90
26990;DHT22;14537;47.788;11.858;2022-11-20T06:35:49;4.30;99.90
26990;DHT22;14537;47.788;11.858;2022-11-20T06:38:15;4.30;99.90
26990;DHT22;14537;47.788;11.858;2022-11-20T06:40:41;4.30;99.90
26990;DHT22;14537;47.788;11.858;2022-11-20T06:43:09;4.40;99.90
26990;DHT22;14537;47.788;11.858;2022-11-20T06:45:35;4.20;99.90
26990;DHT22;14537;47.788;11.858;2022-11-20T06:48:01;4.20;99.90
26990;DHT22;14537;47.788;11.858;2022-11-20T06:50:27;4.10;99.90
26990;DHT22;14537;47.788;11.858;2022-11-20T06:52:52;4.20;99.90
26990;DHT22;14537;47.788;11.858;2022-11-20T06:55:18;4.20;99.90
26990;DHT22;14537;47.788;11.858;2022-11-20T06:57:44;4.10;99.90
26990;DHT22;14537;47.788;11.858;2022-11-20T07:00:10;4.10;99.90
26990;DHT22;14537;47.788;11.858;2022-11-20T07:02:36;4.10;99.90
26990;DHT22;14537;47.788;11.858;2022-11-20T07:05:02;4.10;99.90
26990;DHT22;14537;47.788;11.858;2022-11-20T07:07:27;4.10;99.90
26990;DHT22;14537;47.788;11.858;2022-11-20T07:09:53;4.00;99.90
26990;DHT22;14537;47.788;11.858;2022-11-20T07:12:19;3.90;99.90
26990;DHT22;14537;47.788;11.858;2022-11-20T07:14:44;4.00;99.90
26990;DHT22;14537;47.788;11.858;2022-11-20T07:17:10;4.10;99.90
26990;DHT22;14537;47.788;11.858;2022-11-20T07:19:36;4.10;99.90
26990;DHT22;14537;47.788;11.858;2022-11-20T07:22:02;4.10;99.90
26990;DHT22;14537;47.788;11.858;2022-11-20T07:24:27;4.10;99.90
26990;DHT22;14537;47.788;11.858;2022-11-20T07:26:53;4.20;99.90
26990;DHT22;14537;47.788;11.858;2022-11-20T07:29:19;4.10;99.90
26990;DHT22;14537;47.788;11.858;2022-11-20T07:31:44;4.10;99.90
26990;DHT22;14537;47.788;11.858;2022-11-20T07:34:10;4.20;99.90
26990;DHT22;14537;47.788;11.858;2022-11-20T07:36:35;4.20;99.90
26990;DHT22;14537;47.788;11.858;2022-11-20T07:39:01;4.20;99.90
26990;DHT22;14537;47.788;11.858;2022-11-20T07:41:27;4.20;99.90
26990;DHT22;14537;47.788;11.858;2022-11-20T07:43:53;4.30;99.90
26990;DHT22;14537;47.788;11.858;2022-11-20T07:46:18;4.40;99.90
26990;DHT22;14537;47.788;11.858;2022-11-20T07:48:44;4.40;99.90
26990;DHT22;14537;47.788;11.858;2022-11-20T07:51:10;4.40;99.90
26990;DHT22;14537;47.788;11.858;2022-11-20T07:53:35;4.40;99.90
26990;DHT22;14537;47.788;11.858;2022-11-20T07:56:02;4.40;99.90
26990;DHT22;14537;47.788;11.858;2022-11-20T07:58:31;4.50;99.90
26990;DHT22;14537;47.788;11.858;2022-11-20T08:01:05;4.50;99.90
26990;DHT22;14537;47.788;11.858;2022-11-20T08:03:30;4.60;99.90
26990;DHT22;14537;47.788;11.858;2022-11-20T08:05:59;4.60;99.90
26990;DHT22;14537;47.788;11.858;2022-11-20T08:08:26;4.60;99.90
26990;DHT22;14537;47.788;11.858;2022-11-20T08:10:52;4.60;99.90
26990;DHT22;14537;47.788;11.858;2022-11-20T08:13:17;4.60;99.90
26990;DHT22;14537;47.788;11.858;2022-11-20T08:16:01;4.70;99.90
26990;DHT22;14537;47.788;11.858;2022-11-20T08:18:27;4.80;99.90
26990;DHT22;14537;47.788;11.858;2022-11-20T08:20:52;4.80;99.90
26990;DHT22;14537;47.788;11.858;2022-11-20T08:23:18;4.80;99.90
26990;DHT22;14537;47.788;11.858;2022-11-20T08:25:49;4.90;99.90
26990;DHT22;14537;47.788;11.858;2022-11-20T08:28:15;4.90;99.90
26990;DHT22;14537;47.788;11.858;2022-11-20T08:30:40;4.90;99.90
26990;DHT22;14537;47.788;11.858;2022-11-20T08:33:26;4.90;99.90
26990;DHT22;14537;47.788;11.858;2022-11-20T08:35:52;4.90;99.90
26990;DHT22;14537;47.788;11.858;2022-11-20T08:38:18;5.10;99.90
26990;DHT22;14537;47.788;11.858;2022-11-20T08:40:43;5.20;99.90
26990;DHT22;14537;47.788;11.858;2022-11-20T08:43:32;5.30;99.90
26990;DHT22;14537;47.788;11.858;2022-11-20T08:45:57;5.40;99.90
26990;DHT22;14537;47.788;11.858;2022-11-20T08:48:23;5.50;99.90
26990;DHT22;14537;47.788;11.858;2022-11-20T08:50:49;5.60;99.90
26990;DHT22;14537;47.788;11.858;2022-11-20T08:53:14;5.60;99.90
26990;DHT22;14537;47.788;11.858;2022-11-20T08:55:40;5.60;99.90
26990;DHT22;14537;47.788;11.858;2022-11-20T08:58:06;5.70;99.90
26990;DHT22;14537;47.788;11.858;2022-11-20T09:00:33;5.60;99.90
26990;DHT22;14537;47.788;11.858;2022-11-20T09:02:59;5.60;99.90
26990;DHT22;14537;47.788;11.858;2022-11-20T09:05:26;5.60;99.90
26990;DHT22;14537;47.788;11.858;2022-11-20T09:07:55;5.70;99.90
26990;DHT22;14537;47.788;11.858;2022-11-20T09:10:21;5.70;99.90
26990;DHT22;14537;47.788;11.858;2022-11-20T09:12:49;5.60;99.90
26990;DHT22;14537;47.788;11.858;2022-11-20T09:15:15;5.70;99.90
26990;DHT22;14537;47.788;11.858;2022-11-20T09:17:40;5.70;99.90
26990;DHT22;14537;47.788;11.858;2022-11-20T09:20:06;5.70;99.90
26990;DHT22;14537;47.788;11.858;2022-11-20T09:22:32;5.70;99.90
26990;DHT22;14537;47.788;11.858;2022-11-20T09:24:58;5.70;99.90
26990;DHT22;14537;47.788;11.858;2022-11-20T09:27:23;5.70;99.90
26990;DHT22;14537;47.788;11.858;2022-11-20T09:29:49;5.80;99.90
26990;DHT22;14537;47.788;11.858;2022-11-20T09:32:15;5.80;99.90
26990;DHT22;14537;47.788;11.858;2022-11-20T09:34:40;5.90;99.90
26990;DHT22;14537;47.788;11.858;2022-11-20T09:37:06;5.80;99.90
26990;DHT22;14537;47.788;11.858;2022-11-20T09:39:31;5.70;99.90
26990;DHT22;14537;47.788;11.858;2022-11-20T09:48:00;5.90;99.90
26990;DHT22;14537;47.788;11.858;2022-11-20T09:53:13;5.90;99.90
26990;DHT22;14537;47.788;11.858;2022-11-20T09:55:45;5.90;99.90
26990;DHT22;14537;47.788;11.858;2022-11-20T09:58:23;5.90;99.90
26990;DHT22;14537;47.788;11.858;2022-11-20T10:00:51;5.90;99.90
26990;DHT22;14537;47.788;11.858;2022-11-20T10:03:26;5.90;99.90
26990;DHT22;14537;47.788;11.858;2022-11-20T10:05:59;5.90;99.90
26990;DHT22;14537;47.788;11.858;2022-11-20T10:08:38;6.00;99.90
26990;DHT22;14537;47.788;11.858;2022-11-20T10:26:16;6.60;99.90
26990;DHT22;14537;47.788;11.858;2022-11-20T10:31:12;6.70;99.90
26990;DHT22;14537;47.788;11.858;2022-11-20T10:33:42;6.80;99.90
26990;DHT22;14537;47.788;11.858;2022-11-20T10:36:33;6.70;99.90
26990;DHT22;14537;47.788;11.858;2022-11-20T10:39:07;6.80;99.90
26990;DHT22;14537;47.788;11.858;2022-11-20T10:41:41;6.80;99.90
26990;DHT22;14537;47.788;11.858;2022-11-20T10:44:17;6.70;99.90
26990;DHT22;14537;47.788;11.858;2022-11-20T10:47:08;6.70;99.90
26990;DHT22;14537;47.788;11.858;2022-11-20T10:49:37;6.80;99.90
26990;DHT22;14537;47.788;11.858;2022-11-20T10:52:25;6.90;99.90
26990;DHT22;14537;47.788;11.858;2022-11-20T11:00:14;7.00;99.90
26990;DHT22;14537;47.788;11.858;2022-11-20T11:02:54;7.00;99.90
26990;DHT22;14537;47.788;11.858;2022-11-20T11:05:44;7.10;99.90
26990;DHT22;14537;47.788;11.858;2022-11-20T11:08:15;7.20;99.90
26990;DHT22;14537;47.788;11.858;2022-11-20T11:10:53;7.30;99.90
26990;DHT22;14537;47.788;11.858;2022-11-20T11:13:24;7.40;99.90
26990;DHT22;14537;47.788;11.858;2022-11-20T11:15:51;7.50;99.90
26990;DHT22;14537;47.788;11.858;2022-11-20T11:18:31;7.40;99.90
26990;DHT22;14537;47.788;11.858;2022-11-20T11:21:00;7.50;99.90
26990;DHT22;14537;47.788;11.858;2022-11-20T11:25:59;7.50;99.90
26990;DHT22;14537;47.788;11.858;2022-11-20T11:28:26;7.50;99.90
26990;DHT22;14537;47.788;11.858;2022-11-20T11:30:54;7.50;99.90
26990;DHT22;14537;47.788;11.858;2022-11-20T11:33:22;7.70;99.90
26990;DHT22;14537;47.788;11.858;2022-11-20T11:35:50;7.60;99.90
26990;DHT22;14537;47.788;11.858;2022-11-20T11:38:40;7.40;99.90
26990;DHT22;14537;47.788;11.858;2022-11-20T11:41:12;7.40;99.90
26990;DHT22;14537;47.788;11.858;2022-11-20T11:43:38;7.30;99.90
26990;DHT22;14537;47.788;11.858;2022-11-20T11:46:33;7.20;99.90
26990;DHT22;14537;47.788;11.858;2022-11-20T11:54:30;6.90;99.90
26990;DHT22;14537;47.788;11.858;2022-11-20T11:57:00;6.90;99.90
26990;DHT22;14537;47.788;11.858;2022-11-20T12:02:05;6.90;99.90
26990;DHT22;14537;47.788;11.858;2022-11-20T12:04:51;7.00;99.90
26990;DHT22;14537;47.788;11.858;2022-11-20T12:09:53;7.10;99.90
26990;DHT22;14537;47.788;11.858;2022-11-20T12:12:27;7.20;99.90
26990;DHT22;14537;47.788;11.858;2022-11-20T12:14:56;7.20;99.90
26990;DHT22;14537;47.788;11.858;2022-11-20T12:17:22;7.20;99.90
26990;DHT22;14537;47.788;11.858;2022-11-20T12:19:48;7.20;99.90
26990;DHT22;14537;47.788;11.858;2022-11-20T12:22:34;7.30;99.90
26990;DHT22;14537;47.788;11.858;2022-11-20T12:30:14;7.50;99.90
26990;DHT22;14537;47.788;11.858;2022-11-20T12:44:38;7.90;99.90
26990;DHT22;14537;47.788;11.858;2022-11-20T12:47:55;8.00;99.90
26990;DHT22;14537;47.788;11.858;2022-11-20T13:07:21;7.40;99.90
26990;DHT22;14537;47.788;11.858;2022-11-20T13:09:50;7.40;99.90
26990;DHT22;14537;47.788;11.858;2022-11-20T13:12:33;7.30;99.90
26990;DHT22;14537;47.788;11.858;2022-11-20T13:15:18;7.30;99.90
26990;DHT22;14537;47.788;11.858;2022-11-20T13:17:50;7.20;99.90
26990;DHT22;14537;47.788;11.858;2022-11-20T13:20:19;7.20;99.90
26990;DHT22;14537;47.788;11.858;2022-11-20T13:22:52;7.10;99.90
26990;DHT22;14537;47.788;11.858;2022-11-20T13:25:38;7.20;99.90
26990;DHT22;14537;47.788;11.858;2022-11-20T13:30:47;7.10;99.90
26990;DHT22;14537;47.788;11.858;2022-11-20T13:33:29;7.10;99.90
26990;DHT22;14537;47.788;11.858;2022-11-20T13:38:39;7.00;99.90
26990;DHT22;14537;47.788;11.858;2022-11-20T13:41:08;6.90;99.90
26990;DHT22;14537;47.788;11.858;2022-11-20T13:43:54;6.90;99.90
26990;DHT22;14537;47.788;11.858;2022-11-20T13:46:20;6.80;99.90
26990;DHT22;14537;47.788;11.858;2022-11-20T13:48:51;6.80;99.90
26990;DHT22;14537;47.788;11.858;2022-11-20T13:51:47;6.80;99.90
26990;DHT22;14537;47.788;11.858;2022-11-20T14:02:18;6.70;99.90
26990;DHT22;14537;47.788;11.858;2022-11-20T14:04:47;6.60;99.90
26990;DHT22;14537;47.788;11.858;2022-11-20T14:07:15;6.60;99.90
26990;DHT22;14537;47.788;11.858;2022-11-20T14:09:53;6.50;99.90
26990;DHT22;14537;47.788;11.858;2022-11-20T14:12:27;6.50;99.90
26990;DHT22;14537;47.788;11.858;2022-11-20T14:14:54;6.40;99.90
26990;DHT22;14537;47.788;11.858;2022-11-20T14:17:23;6.40;99.90
26990;DHT22;14537;47.788;11.858;2022-11-20T14:19:51;6.30;99.90
26990;DHT22;14537;47.788;11.858;2022-11-20T14:22:27;6.30;99.90
26990;DHT22;14537;47.788;11.858;2022-11-20T14:27:38;6.30;99.90
26990;DHT22;14537;47.788;11.858;2022-11-20T14:30:05;6.30;99.90
26990;DHT22;14537;47.788;11.858;2022-11-20T14:32:34;6.30;99.90
26990;DHT22;14537;47.788;11.858;2022-11-20T14:35:07;6.30;99.90
26990;DHT22;14537;47.788;11.858;2022-11-20T14:37:37;6.30;99.90
26990;DHT22;14537;47.788;11.858;2022-11-20T14:40:28;6.20;99.90
26990;DHT22;14537;47.788;11.858;2022-11-20T14:42:51;6.20;99.90
26990;DHT22;14537;47.788;11.858;2022-11-20T14:45:18;6.10;99.90
26990;DHT22;14537;47.788;11.858;2022-11-20T14:47:45;6.10;99.90
26990;DHT22;14537;47.788;11.858;2022-11-20T14:50:19;6.10;99.90
26990;DHT22;14537;47.788;11.858;2022-11-20T14:53:12;6.10;99.90
26990;DHT22;14537;47.788;11.858;2022-11-20T14:55:55;6.10;99.90
26990;DHT22;14537;47.788;11.858;2022-11-20T14:58:23;6.00;99.90
26990;DHT22;14537;47.788;11.858;2022-11-20T15:01:04;5.90;99.90
26990;DHT22;14537;47.788;11.858;2022-11-20T15:03:33;5.80;99.90
26990;DHT22;14537;47.788;11.858;2022-11-20T15:05:59;6.00;99.90
26990;DHT22;14537;47.788;11.858;2022-11-20T15:08:25;5.90;99.90
26990;DHT22;14537;47.788;11.858;2022-11-20T15:10:51;5.80;99.90
26990;DHT22;14537;47.788;11.858;2022-11-20T15:15:57;6.00;99.90
26990;DHT22;14537;47.788;11.858;2022-11-20T15:18:37;6.00;99.90
26990;DHT22;14537;47.788;11.858;2022-11-20T15:21:09;5.90;99.90
26990;DHT22;14537;47.788;11.858;2022-11-20T15:23:35;5.80;99.90
26990;DHT22;14537;47.788;11.858;2022-11-20T15:26:01;5.80;99.90
26990;DHT22;14537;47.788;11.858;2022-11-20T15:28:35;5.70;99.90
26990;DHT22;14537;47.788;11.858;2022-11-20T15:31:03;5.70;99.90
26990;DHT22;14537;47.788;11.858;2022-11-20T15:33:30;5.70;99.90
26990;DHT22;14537;47.788;11.858;2022-11-20T15:35:56;5.70;99.90
26990;DHT22;14537;47.788;11.858;2022-11-20T15:38:21;5.70;99.90
26990;DHT22;14537;47.788;11.858;2022-11-20T15:40:47;5.60;99.90
26990;DHT22;14537;47.788;11.858;2022-11-20T15:43:13;5.50;99.90
26990;DHT22;14537;47.788;11.858;2022-11-20T15:45:41;5.60;99.90
26990;DHT22;14537;47.788;11.858;2022-11-20T15:48:13;5.50;99.90
26990;DHT22;14537;47.788;11.858;2022-11-20T15:53:33;5.50;99.90
26990;DHT22;14537;47.788;11.858;2022-11-20T15:55:59;5.40;99.90
26990;DHT22;14537;47.788;11.858;2022-11-20T15:58:25;5.40;99.90
26990;DHT22;14537;47.788;11.858;2022-11-20T16:00:52;5.50;99.90
26990;DHT22;14537;47.788;11.858;2022-11-20T16:03:18;5.50;99.90
26990;DHT22;14537;47.788;11.858;2022-11-20T16:05:44;5.60;99.90
26990;DHT22;14537;47.788;11.858;2022-11-20T16:08:10;5.50;99.90
26990;DHT22;14537;47.788;11.858;2022-11-20T16:10:36;5.50;99.90
26990;DHT22;14537;47.788;11.858;2022-11-20T16:13:02;5.50;99.90
26990;DHT22;14537;47.788;11.858;2022-11-20T16:15:53;5.50;99.90
26990;DHT22;14537;47.788;11.858;2022-11-20T16:18:21;5.60;99.90
26990;DHT22;14537;47.788;11.858;2022-11-20T16:20:50;5.60;99.90
26990;DHT22;14537;47.788;11.858;2022-11-20T16:23:16;5.50;99.90
26990;DHT22;14537;47.788;11.858;2022-11-20T16:25:43;5.40;99.90
26990;DHT22;14537;47.788;11.858;2022-11-20T16:28:09;5.40;99.90
26990;DHT22;14537;47.788;11.858;2022-11-20T16:30:35;5.50;99.90
26990;DHT22;14537;47.788;11.858;2022-11-20T16:33:01;5.60;99.90
26990;DHT22;14537;47.788;11.858;2022-11-20T16:35:28;5.40;99.90
26990;DHT22;14537;47.788;11.858;2022-11-20T16:37:55;5.40;99.90
26990;DHT22;14537;47.788;11.858;2022-11-20T16:40:21;5.40;99.90
26990;DHT22;14537;47.788;11.858;2022-11-20T16:42:47;5.40;99.90
26990;DHT22;14537;47.788;11.858;2022-11-20T16:45:13;5.40;99.90
26990;DHT22;14537;47.788;11.858;2022-11-20T16:47:39;5.30;99.90
26990;DHT22;14537;47.788;11.858;2022-11-20T16:50:05;5.30;99.90
26990;DHT22;14537;47.788;11.858;2022-11-20T16:52:31;5.20;99.90
26990;DHT22;14537;47.788;11.858;2022-11-20T16:54:57;5.20;99.90
26990;DHT22;14537;47.788;11.858;2022-11-20T16:57:23;5.10;99.90
26990;DHT22;14537;47.788;11.858;2022-11-20T16:59:49;5.10;99.90
26990;DHT22;14537;47.788;11.858;2022-11-20T17:02:15;5.00;99.90
26990;DHT22;14537;47.788;11.858;2022-11-20T17:04:41;5.00;99.90
26990;DHT22;14537;47.788;11.858;2022-11-20T17:07:07;4.90;99.90
26990;DHT22;14537;47.788;11.858;2022-11-20T17:09:33;5.00;99.90
26990;DHT22;14537;47.788;11.858;2022-11-20T17:11:59;4.90;99.90
26990;DHT22;14537;47.788;11.858;2022-11-20T17:14:24;4.90;99.90
26990;DHT22;14537;47.788;11.858;2022-11-20T17:16:50;4.80;99.90
26990;DHT22;14537;47.788;11.858;2022-11-20T17:19:16;4.70;99.90
26990;DHT22;14537;47.788;11.858;2022-11-20T17:21:41;4.60;99.90
26990;DHT22;14537;47.788;11.858;2022-11-20T17:24:09;4.50;99.90
26990;DHT22;14537;47.788;11.858;2022-11-20T17:26:37;4.50;99.90
26990;DHT22;14537;47.788;11.858;2022-11-20T17:29:10;4.50;99.90